Time;durP1;ratioP1;P1;durP2;ratioP2;P2;SDS_P1;SDS_P2;PMS_P1;PMS_P2;Temp;Humidity;BMP_temperature;BMP_pressure;BME280_temperature;BME280_humidity;BME280_pressure;Samples;Min_cycle;Max_cycle;Signal;HPM_P1;HPM_P2
2021/11/20 00:01:58;;;;;;;15.73;5.88;;;24.40;99.90;;;;;;5045717;28;20040;-72
2021/11/20 00:04:25;;;;;;;20.95;6.13;;;24.60;99.90;;;;;;5046060;28;20162;-72
2021/11/20 00:06:55;;;;;;;19.98;6.53;;;24.60;99.90;;;;;;5038947;28;20505;-72
2021/11/20 00:09:24;;;;;;;12.55;6.68;;;24.60;99.90;;;;;;5043666;28;20380;-71
2021/11/20 00:11:54;;;;;;;11.23;5.32;;;24.40;99.90;;;;;;5039471;28;20538;-72
2021/11/20 00:14:23;;;;;;;18.15;5.32;;;24.20;99.90;;;;;;5040657;28;20051;-72
2021/11/20 00:16:52;;;;;;;25.90;6.63;;;24.10;99.90;;;;;;5040363;28;20055;-72
2021/11/20 00:19:22;;;;;;;12.93;5.78;;;24.10;99.90;;;;;;5043433;28;20024;-72
2021/11/20 00:21:55;;;;;;;15.02;5.93;;;24.10;99.90;;;;;;5039542;28;20118;-73
2021/11/20 00:24:32;;;;;;;16.23;5.55;;;24.20;99.90;;;;;;5043002;28;20178;-73
2021/11/20 00:27:01;;;;;;;13.43;5.55;;;24.20;99.90;;;;;;5031895;28;20022;-72
2021/11/20 00:29:47;;;;;;;15.30;5.55;;;24.00;99.90;;;;;;5035693;28;20388;-75
2021/11/20 00:32:26;;;;;;;13.80;5.95;;;23.80;99.90;;;;;;5034404;28;20040;-73
2021/11/20 00:34:59;;;;;;;14.85;6.63;;;23.60;99.90;;;;;;5040603;28;20488;-75
2021/11/20 00:37:29;;;;;;;9.43;4.78;;;23.50;99.90;;;;;;5032845;28;20468;-73
2021/11/20 00:39:57;;;;;;;12.75;5.22;;;23.60;99.90;;;;;;5047109;28;20062;-73
2021/11/20 00:42:24;;;;;;;13.48;5.28;;;23.70;99.90;;;;;;5037678;28;20117;-75
2021/11/20 00:44:52;;;;;;;14.63;6.65;;;23.70;99.90;;;;;;5043365;28;20059;-73
2021/11/20 00:47:19;;;;;;;14.20;5.00;;;23.80;99.90;;;;;;5046577;28;20064;-73
2021/11/20 00:49:50;;;;;;;15.07;5.60;;;23.90;99.90;;;;;;5041551;28;20028;-74
2021/11/20 00:52:17;;;;;;;16.20;5.53;;;23.90;99.90;;;;;;5046255;28;20024;-73
2021/11/20 00:54:45;;;;;;;18.05;5.15;;;24.00;99.90;;;;;;5035310;28;20071;-72
2021/11/20 00:57:13;;;;;;;17.05;7.07;;;24.00;99.90;;;;;;5047558;28;20403;-76
2021/11/20 00:59:41;;;;;;;16.40;7.80;;;24.10;99.90;;;;;;5039560;28;20490;-73
2021/11/20 01:02:09;;;;;;;9.65;5.30;;;24.10;99.90;;;;;;5048132;28;20051;-74
2021/11/20 01:04:37;;;;;;;16.92;5.85;;;24.10;99.90;;;;;;5039821;28;20055;-74
2021/11/20 01:07:07;;;;;;;13.85;5.35;;;24.00;99.90;;;;;;5048518;28;20041;-73
2021/11/20 01:09:39;;;;;;;13.25;4.85;;;23.90;99.90;;;;;;5045223;28;20049;-73
2021/11/20 01:12:17;;;;;;;18.85;6.32;;;23.90;99.90;;;;;;5042906;28;20063;-72
2021/11/20 01:14:47;;;;;;;13.70;5.60;;;23.80;99.90;;;;;;5045159;28;20139;-72
2021/11/20 01:17:15;;;;;;;13.93;5.03;;;23.80;99.90;;;;;;5047718;28;20033;-73
2021/11/20 01:19:44;;;;;;;14.30;5.68;;;23.60;99.90;;;;;;5040604;28;20451;-73
2021/11/20 01:22:17;;;;;;;17.67;6.28;;;23.50;99.90;;;;;;5034259;28;20112;-75
2021/11/20 01:24:46;;;;;;;12.63;5.07;;;23.50;99.90;;;;;;5045223;28;20388;-74
2021/11/20 01:27:14;;;;;;;17.70;6.65;;;23.50;99.90;;;;;;5041213;28;20032;-74
2021/11/20 01:29:42;;;;;;;11.88;5.30;;;23.40;99.90;;;;;;5042410;28;20036;-75
2021/11/20 01:32:09;;;;;;;10.98;5.65;;;23.40;99.90;;;;;;5044822;28;20473;-73
2021/11/20 01:34:37;;;;;;;11.98;5.22;;;23.50;99.90;;;;;;5044477;28;20036;-74
2021/11/20 01:37:07;;;;;;;19.27;5.53;;;23.90;99.90;;;;;;5042460;28;20017;-74
2021/11/20 01:39:37;;;;;;;10.43;5.20;;;24.10;99.90;;;;;;5039370;28;20074;-73
2021/11/20 01:42:17;;;;;;;6.97;4.43;;;24.30;99.90;;;;;;5050418;28;20079;-73
2021/11/20 01:44:57;;;;;;;13.38;5.80;;;24.40;99.90;;;;;;5043619;28;20035;-73
2021/11/20 01:47:28;;;;;;;16.42;6.07;;;24.40;99.90;;;;;;5048865;28;20021;-74
2021/11/20 01:50:02;;;;;;;18.00;6.25;;;24.30;99.90;;;;;;5040848;28;20109;-73
2021/11/20 01:52:47;;;;;;;10.75;4.53;;;24.30;99.90;;;;;;5044338;28;20017;-70
2021/11/20 01:55:26;;;;;;;15.88;5.57;;;24.10;99.90;;;;;;5039690;28;20043;-72
2021/11/20 01:58:10;;;;;;;13.50;5.78;;;23.80;99.90;;;;;;5046360;28;20037;-72
2021/11/20 02:00:49;;;;;;;15.25;6.07;;;23.70;99.90;;;;;;5039022;28;20029;-74
2021/11/20 02:03:19;;;;;;;22.02;5.68;;;23.50;99.90;;;;;;5041766;28;20030;-73
2021/11/20 02:05:54;;;;;;;16.50;6.50;;;23.50;99.90;;;;;;5044546;28;20021;-73
2021/11/20 02:08:40;;;;;;;16.95;5.25;;;23.50;99.90;;;;;;5034665;28;20061;-74
2021/11/20 02:11:17;;;;;;;15.93;5.78;;;23.50;99.90;;;;;;5043696;28;20017;-72
2021/11/20 02:13:45;;;;;;;17.73;5.97;;;23.50;99.90;;;;;;5039690;28;20041;-73
2021/11/20 02:16:23;;;;;;;19.63;6.45;;;23.60;99.90;;;;;;5045695;28;20032;-73
2021/11/20 02:18:56;;;;;;;14.77;5.72;;;23.60;99.90;;;;;;5034737;28;20028;-73
2021/11/20 02:21:50;;;;;;;17.45;4.97;;;23.50;99.90;;;;;;5045791;28;20479;-72
2021/11/20 02:24:16;;;;;;;18.48;5.70;;;23.60;99.90;;;;;;5033559;28;20041;-73
2021/11/20 02:26:43;;;;;;;16.27;6.18;;;23.60;99.90;;;;;;5040392;28;20100;-73
2021/11/20 02:29:14;;;;;;;12.07;6.13;;;23.60;99.90;;;;;;5045893;28;20028;-72
2021/11/20 02:31:51;;;;;;;15.10;5.35;;;23.70;99.90;;;;;;5046998;28;20045;-73
2021/11/20 02:34:21;;;;;;;17.98;6.15;;;23.60;99.90;;;;;;5047079;28;20547;-73
2021/11/20 02:36:49;;;;;;;13.07;5.15;;;23.60;99.90;;;;;;5043793;28;20480;-74
2021/11/20 02:39:23;;;;;;;13.95;5.05;;;23.60;99.90;;;;;;5041284;28;20052;-73
2021/11/20 02:41:53;;;;;;;13.38;5.80;;;23.70;99.90;;;;;;5040229;28;20487;-73
2021/11/20 02:44:25;;;;;;;16.85;6.07;;;23.80;99.90;;;;;;5045411;28;20426;-71
2021/11/20 02:47:00;;;;;;;21.00;6.13;;;23.70;99.90;;;;;;5048299;28;20498;-73
2021/11/20 02:49:29;;;;;;;14.93;7.55;;;23.60;99.90;;;;;;5037591;28;20036;-73
2021/11/20 02:52:08;;;;;;;19.52;6.95;;;23.70;99.90;;;;;;5045670;28;20049;-73
2021/11/20 02:54:36;;;;;;;19.10;7.53;;;23.70;99.90;;;;;;5043605;28;20128;-73
2021/11/20 02:57:24;;;;;;;13.55;7.68;;;23.70;99.90;;;;;;5039826;28;20427;-74
2021/11/20 02:59:51;;;;;;;19.83;7.45;;;23.60;99.90;;;;;;5045790;28;20025;-72
2021/11/20 03:02:19;;;;;;;19.92;8.27;;;23.50;99.90;;;;;;5040113;28;20604;-72
2021/11/20 03:04:47;;;;;;;15.57;7.47;;;23.40;99.90;;;;;;5043635;28;20109;-73
2021/11/20 03:07:14;;;;;;;19.45;8.90;;;23.20;99.90;;;;;;5043448;28;20106;-73
2021/11/20 03:09:42;;;;;;;16.67;7.78;;;23.30;99.90;;;;;;5046130;28;20029;-74
2021/11/20 03:12:12;;;;;;;21.40;7.40;;;23.30;99.90;;;;;;5041297;28;20303;-72
2021/11/20 03:14:41;;;;;;;17.20;7.47;;;23.40;99.90;;;;;;5044673;28;20443;-72
2021/11/20 03:17:10;;;;;;;17.83;7.28;;;23.50;99.90;;;;;;5047259;28;20074;-72
2021/11/20 03:19:46;;;;;;;19.50;7.22;;;23.70;99.90;;;;;;5048440;28;20021;-73
2021/11/20 03:22:22;;;;;;;17.77;6.47;;;23.80;99.90;;;;;;5045685;28;20029;-73
2021/11/20 03:24:51;;;;;;;16.98;7.30;;;23.70;99.90;;;;;;5047301;28;20083;-73
2021/11/20 03:27:19;;;;;;;14.77;6.60;;;23.60;99.90;;;;;;5045093;28;20100;-72
2021/11/20 03:29:48;;;;;;;20.95;7.22;;;23.50;99.90;;;;;;5044449;28;20140;-73
2021/11/20 03:32:16;;;;;;;18.20;5.05;;;23.50;99.90;;;;;;5047220;28;20116;-74
2021/11/20 03:34:44;;;;;;;16.73;5.78;;;23.50;99.90;;;;;;5050354;28;20064;-72
2021/11/20 03:37:12;;;;;;;13.82;5.00;;;23.50;99.90;;;;;;5042252;28;20040;-73
2021/11/20 03:39:41;;;;;;;18.65;5.45;;;23.40;99.90;;;;;;5045476;28;20025;-72
2021/11/20 03:42:09;;;;;;;14.00;4.82;;;23.40;99.90;;;;;;5045539;28;20040;-71
2021/11/20 03:44:37;;;;;;;17.02;5.15;;;23.30;99.90;;;;;;5037097;28;20025;-72
2021/11/20 03:47:05;;;;;;;10.57;4.30;;;23.30;99.90;;;;;;5046780;28;20029;-71
2021/11/20 03:49:32;;;;;;;10.13;4.05;;;23.20;99.90;;;;;;5048853;28;20096;-73
2021/11/20 03:52:00;;;;;;;14.23;5.25;;;23.00;99.90;;;;;;5048928;28;20029;-72
2021/11/20 03:54:28;;;;;;;17.08;5.82;;;23.00;99.90;;;;;;5048926;28;20381;-72
2021/11/20 03:56:55;;;;;;;15.70;4.82;;;23.00;99.90;;;;;;5047881;28;20029;-72
2021/11/20 03:59:23;;;;;;;13.95;4.78;;;22.80;99.90;;;;;;5039730;28;20659;-72
2021/11/20 04:01:51;;;;;;;14.07;5.28;;;22.80;99.90;;;;;;5042598;28;20048;-71
2021/11/20 04:04:18;;;;;;;14.00;6.07;;;22.90;99.90;;;;;;5046775;28;20090;-71
2021/11/20 04:06:46;;;;;;;10.82;5.10;;;23.00;99.90;;;;;;5048109;28;20027;-71
2021/11/20 04:09:14;;;;;;;11.48;5.82;;;22.90;99.90;;;;;;5048567;28;20037;-72
2021/11/20 04:11:45;;;;;;;15.30;4.50;;;22.90;99.90;;;;;;5047164;28;20025;-71
2021/11/20 04:14:14;;;;;;;12.48;5.15;;;22.80;99.90;;;;;;5048552;28;20137;-73
2021/11/20 04:16:43;;;;;;;18.30;5.45;;;22.80;99.90;;;;;;5050406;28;20017;-72
2021/11/20 04:19:10;;;;;;;10.95;5.35;;;22.80;99.90;;;;;;5046823;28;20086;-71
2021/11/20 04:21:38;;;;;;;11.02;4.72;;;22.80;99.90;;;;;;5047753;28;20048;-73
2021/11/20 04:24:08;;;;;;;9.15;4.07;;;22.70;99.90;;;;;;5047179;28;20345;-73
2021/11/20 04:26:35;;;;;;;11.80;5.07;;;22.60;99.90;;;;;;5041407;28;20383;-71
2021/11/20 04:29:05;;;;;;;9.02;4.43;;;22.60;99.90;;;;;;5037947;28;20020;-72
2021/11/20 04:31:33;;;;;;;14.30;4.75;;;22.70;99.90;;;;;;5039773;28;20040;-72
2021/11/20 04:34:01;;;;;;;10.50;4.75;;;22.70;99.90;;;;;;5040409;28;20435;-71
2021/11/20 04:36:29;;;;;;;9.45;4.30;;;22.80;99.90;;;;;;5047800;28;20079;-72
2021/11/20 04:38:57;;;;;;;11.68;4.47;;;23.00;99.90;;;;;;5044786;28;20630;-72
2021/11/20 04:41:25;;;;;;;9.98;4.53;;;23.10;99.90;;;;;;5047585;28;20468;-73
2021/11/20 04:43:53;;;;;;;11.82;4.82;;;23.20;99.90;;;;;;5040205;28;20021;-73
2021/11/20 04:46:23;;;;;;;9.85;4.25;;;23.30;99.90;;;;;;5042105;28;20028;-72
2021/11/20 04:48:51;;;;;;;6.32;3.60;;;23.60;99.90;;;;;;5044347;28;20025;-72
2021/11/20 04:51:19;;;;;;;12.50;3.95;;;23.70;99.90;;;;;;5038781;28;20383;-72
2021/11/20 04:53:48;;;;;;;8.40;3.60;;;23.60;99.90;;;;;;5035629;28;20051;-73
2021/11/20 04:56:18;;;;;;;11.45;4.32;;;23.60;99.90;;;;;;5037204;28;20443;-73
2021/11/20 04:58:47;;;;;;;6.93;3.47;;;23.60;99.90;;;;;;5038827;28;20021;-71
2021/11/20 05:01:17;;;;;;;9.75;3.47;;;23.60;99.90;;;;;;5044090;28;20040;-72
2021/11/20 05:03:45;;;;;;;6.57;3.28;;;23.40;99.90;;;;;;5039292;28;20024;-73
2021/11/20 05:06:15;;;;;;;8.48;3.42;;;23.30;99.90;;;;;;5040946;28;20462;-71
2021/11/20 05:08:46;;;;;;;7.80;2.92;;;23.00;99.90;;;;;;5040016;28;20035;-71
2021/11/20 05:11:14;;;;;;;6.15;2.30;;;23.10;99.90;;;;;;5040656;28;20037;-71
2021/11/20 05:13:42;;;;;;;6.13;3.58;;;23.20;99.90;;;;;;5047367;28;20119;-72
2021/11/20 05:16:12;;;;;;;6.63;2.70;;;23.50;99.90;;;;;;5042208;28;20043;-70
2021/11/20 05:18:40;;;;;;;7.90;2.75;;;23.80;99.90;;;;;;5044797;28;20021;-72
2021/11/20 05:21:08;;;;;;;7.75;3.05;;;23.80;99.90;;;;;;5046462;28;20025;-71
2021/11/20 05:23:37;;;;;;;3.40;1.58;;;23.50;99.90;;;;;;5044358;28;20033;-72
2021/11/20 05:26:07;;;;;;;3.53;1.58;;;23.40;99.90;;;;;;5046328;28;20112;-72
2021/11/20 05:28:35;;;;;;;5.05;1.75;;;23.30;99.90;;;;;;5046281;28;20043;-71
2021/11/20 05:31:03;;;;;;;4.53;1.92;;;23.30;99.90;;;;;;5045017;28;20234;-72
2021/11/20 05:33:35;;;;;;;4.97;1.13;;;23.30;99.90;;;;;;5042542;28;20087;-73
2021/11/20 05:36:04;;;;;;;4.32;1.45;;;23.30;99.90;;;;;;5040594;28;20029;-73
2021/11/20 05:38:31;;;;;;;10.43;3.58;;;23.30;99.90;;;;;;5041858;28;20033;-72
2021/11/20 05:40:59;;;;;;;6.28;1.75;;;23.40;99.90;;;;;;5047591;28;20029;-72
2021/11/20 05:43:27;;;;;;;4.22;1.60;;;23.40;99.90;;;;;;5047320;28;20029;-73
2021/11/20 05:45:59;;;;;;;5.68;1.13;;;23.40;99.90;;;;;;5040097;28;20025;-72
2021/11/20 05:48:26;;;;;;;5.07;1.52;;;23.60;99.90;;;;;;5036649;28;20029;-71
2021/11/20 05:50:54;;;;;;;6.38;1.77;;;23.70;99.90;;;;;;5038032;28;20025;-72
2021/11/20 05:53:24;;;;;;;3.20;1.13;;;23.50;99.90;;;;;;5039235;28;20074;-72
2021/11/20 05:55:54;;;;;;;2.03;1.38;;;23.30;99.90;;;;;;5040463;28;20405;-72
2021/11/20 05:58:22;;;;;;;2.00;1.23;;;23.20;99.90;;;;;;5039502;28;20476;-72
2021/11/20 06:00:53;;;;;;;1.83;1.00;;;23.10;99.90;;;;;;5040996;28;20025;-73
2021/11/20 06:03:24;;;;;;;2.88;0.95;;;22.90;99.90;;;;;;5042857;28;20029;-74
2021/11/20 06:05:51;;;;;;;4.75;1.25;;;22.80;99.90;;;;;;5045125;28;20033;-72
2021/11/20 06:08:22;;;;;;;2.35;0.88;;;22.60;99.90;;;;;;5045396;28;20027;-73
2021/11/20 06:10:51;;;;;;;3.80;1.10;;;22.50;99.90;;;;;;5046233;28;20071;-74
2021/11/20 06:13:19;;;;;;;4.32;1.45;;;22.40;99.90;;;;;;5043292;28;20110;-72
2021/11/20 06:15:47;;;;;;;3.83;1.17;;;22.20;99.90;;;;;;5041506;28;20029;-73
2021/11/20 06:18:15;;;;;;;2.20;1.33;;;22.10;99.90;;;;;;5039216;28;20484;-73
2021/11/20 06:20:45;;;;;;;3.85;0.88;;;22.00;99.90;;;;;;5046995;28;20475;-72
2021/11/20 06:23:12;;;;;;;0.63;0.52;;;21.90;99.90;;;;;;5042289;28;20049;-71
2021/11/20 06:25:40;;;;;;;4.03;1.80;;;21.70;99.90;;;;;;5044352;28;20029;-72
2021/11/20 06:28:08;;;;;;;2.00;0.68;;;21.70;99.90;;;;;;5045220;28;20079;-74
2021/11/20 06:30:37;;;;;;;3.63;0.75;;;21.80;99.90;;;;;;5046258;28;20060;-72
2021/11/20 06:33:05;;;;;;;2.65;0.95;;;21.70;99.90;;;;;;5045426;28;20024;-72
2021/11/20 06:35:36;;;;;;;3.15;1.40;;;21.70;99.90;;;;;;5046502;28;20107;-71
2021/11/20 06:38:05;;;;;;;2.17;0.98;;;21.70;99.90;;;;;;5047256;28;20167;-72
2021/11/20 06:40:37;;;;;;;4.57;1.00;;;21.60;99.90;;;;;;5039839;28;20384;-71
2021/11/20 06:43:06;;;;;;;2.17;0.80;;;21.60;99.90;;;;;;5042758;28;20017;-72
2021/11/20 06:45:37;;;;;;;3.35;0.80;;;21.70;99.90;;;;;;5045025;28;20033;-72
2021/11/20 06:48:06;;;;;;;5.03;1.25;;;21.70;99.90;;;;;;5042557;28;20116;-73
2021/11/20 06:50:38;;;;;;;3.90;0.90;;;21.60;99.90;;;;;;5042249;28;20021;-71
2021/11/20 06:53:08;;;;;;;1.92;0.68;;;21.60;99.90;;;;;;5041894;28;20169;-70
2021/11/20 06:55:37;;;;;;;4.43;0.60;;;21.60;99.90;;;;;;5043874;28;20392;-71
2021/11/20 07:00:57;;;;;;;1.63;0.80;;;21.60;99.90;;;;;;5038878;28;20017;-70
2021/11/20 07:03:38;;;;;;;3.88;1.10;;;21.50;99.90;;;;;;5041929;28;20029;-71
2021/11/20 07:06:19;;;;;;;2.97;0.70;;;21.50;99.90;;;;;;5035311;28;20030;-71
2021/11/20 07:08:49;;;;;;;3.20;0.93;;;21.30;99.90;;;;;;5044012;28;20094;-70
2021/11/20 07:11:17;;;;;;;1.23;0.70;;;21.30;99.90;;;;;;5049487;28;20031;-73
2021/11/20 07:13:45;;;;;;;2.22;0.60;;;21.30;99.90;;;;;;5043590;28;20120;-72
2021/11/20 07:16:13;;;;;;;2.17;0.50;;;21.30;99.90;;;;;;5049641;28;20033;-73
2021/11/20 07:18:42;;;;;;;2.15;1.50;;;21.20;99.90;;;;;;5043582;28;20493;-73
2021/11/20 07:21:10;;;;;;;1.00;0.75;;;21.10;99.90;;;;;;5049667;28;20017;-72
2021/11/20 07:23:38;;;;;;;2.50;0.50;;;21.10;99.90;;;;;;5046878;28;20380;-72
2021/11/20 07:26:08;;;;;;;0.52;0.40;;;21.00;99.90;;;;;;5050274;28;20337;-72
2021/11/20 07:28:37;;;;;;;1.05;0.47;;;20.90;99.90;;;;;;5050039;28;20467;-73
2021/11/20 07:31:05;;;;;;;2.92;1.38;;;20.80;99.90;;;;;;5050123;28;20041;-69
2021/11/20 07:33:33;;;;;;;1.30;0.30;;;20.80;99.90;;;;;;5049852;28;20025;-70
2021/11/20 07:36:03;;;;;;;3.75;0.70;;;20.80;99.90;;;;;;5047673;28;20036;-72
2021/11/20 07:38:40;;;;;;;2.03;0.35;;;20.60;99.90;;;;;;5038428;28;20575;-72
2021/11/20 07:41:08;;;;;;;1.30;0.65;;;20.50;99.90;;;;;;5039710;28;20053;-69
2021/11/20 07:43:36;;;;;;;2.08;0.30;;;20.40;99.90;;;;;;5043061;28;20075;-71
2021/11/20 07:46:10;;;;;;;1.17;0.50;;;20.30;99.90;;;;;;5040383;28;20087;-70
2021/11/20 07:48:38;;;;;;;2.45;0.40;;;20.10;99.90;;;;;;5041872;28;20024;-71
2021/11/20 07:51:10;;;;;;;1.65;0.38;;;20.00;99.90;;;;;;5044314;28;20040;-69
2021/11/20 07:53:38;;;;;;;2.78;0.40;;;19.90;99.90;;;;;;5040370;28;20064;-70
2021/11/20 07:56:07;;;;;;;2.45;0.85;;;19.90;99.90;;;;;;5043262;28;20033;-69
2021/11/20 07:58:35;;;;;;;1.65;0.43;;;20.00;99.90;;;;;;5038601;28;20037;-70
2021/11/20 08:01:03;;;;;;;1.02;0.32;;;20.00;99.90;;;;;;5044578;28;20062;-71
2021/11/20 08:03:31;;;;;;;3.55;0.60;;;20.00;99.90;;;;;;5039366;28;20546;-70
2021/11/20 08:05:58;;;;;;;2.75;0.77;;;20.00;99.90;;;;;;5043060;28;20032;-72
2021/11/20 08:08:26;;;;;;;1.30;0.60;;;20.00;99.90;;;;;;5041573;28;20029;-70
2021/11/20 08:10:54;;;;;;;1.10;0.50;;;20.00;99.90;;;;;;5044677;28;20484;-70
2021/11/20 08:13:21;;;;;;;1.45;0.65;;;19.90;99.90;;;;;;5043911;28;20484;-71
2021/11/20 08:15:49;;;;;;;4.03;0.70;;;19.90;99.90;;;;;;5043280;28;20064;-71
2021/11/20 08:18:16;;;;;;;2.97;0.70;;;19.80;99.90;;;;;;5041555;28;20505;-70
2021/11/20 08:20:46;;;;;;;1.10;0.20;;;19.80;99.90;;;;;;5036162;28;22538;-72
2021/11/20 08:23:14;;;;;;;8.40;0.55;;;19.80;99.90;;;;;;5041864;28;20033;-71
2021/11/20 08:25:46;;;;;;;0.77;0.40;;;19.70;99.90;;;;;;5037652;28;20025;-71
2021/11/20 08:28:18;;;;;;;2.30;0.77;;;19.70;99.90;;;;;;5043195;28;20041;-71
2021/11/20 08:30:47;;;;;;;3.38;0.38;;;19.70;99.90;;;;;;5040793;28;20037;-74
2021/11/20 08:33:15;;;;;;;1.83;0.40;;;19.80;99.90;;;;;;5041860;28;20033;-74
2021/11/20 08:35:44;;;;;;;5.75;0.95;;;19.60;99.90;;;;;;5056711;28;20021;-72
2021/11/20 08:38:14;;;;;;;2.97;0.30;;;19.70;99.90;;;;;;5045108;28;20056;-73
2021/11/20 08:40:44;;;;;;;5.13;0.50;;;19.70;99.90;;;;;;5046364;28;20031;-71
2021/11/20 08:43:12;;;;;;;4.22;0.55;;;19.70;99.90;;;;;;5048235;28;20021;-72
2021/11/20 08:45:44;;;;;;;4.22;0.95;;;19.70;99.90;;;;;;5048723;28;20025;-71
2021/11/20 08:48:16;;;;;;;5.65;0.63;;;19.70;99.90;;;;;;5048186;28;20116;-71
2021/11/20 08:50:51;;;;;;;2.30;0.77;;;19.60;99.90;;;;;;5049459;28;20446;-73
2021/11/20 08:53:19;;;;;;;;;;;19.60;99.90;;;;;;5042859;28;20031;-72
2021/11/20 08:55:47;;;;;;;1.92;0.70;;;19.60;99.90;;;;;;5049413;28;19916;-71
2021/11/20 08:58:15;;;;;;;5.60;1.05;;;19.60;99.90;;;;;;5047726;28;20033;-71
2021/11/20 09:00:48;;;;;;;3.65;2.13;;;19.50;99.90;;;;;;5045712;28;20025;-70
2021/11/20 09:03:22;;;;;;;2.90;1.08;;;19.40;99.90;;;;;;5048214;28;20056;-72
2021/11/20 09:05:56;;;;;;;7.20;4.93;;;19.30;99.90;;;;;;5048868;28;20048;-74
2021/11/20 09:08:33;;;;;;;1.77;1.00;;;19.10;99.90;;;;;;5041862;28;20555;-72
2021/11/20 09:11:22;;;;;;;3.45;0.77;;;19.00;99.90;;;;;;5045904;28;20029;-72
2021/11/20 09:14:03;;;;;;;1.25;0.60;;;19.00;99.90;;;;;;5046749;28;20033;-71
2021/11/20 09:16:31;;;;;;;3.05;1.17;;;18.90;99.90;;;;;;5042362;28;20814;-74
2021/11/20 09:18:58;;;;;;;1.40;1.30;;;19.00;99.90;;;;;;5048162;28;20024;-73
2021/11/20 09:21:28;;;;;;;1.67;0.63;;;18.90;99.90;;;;;;5047915;28;20036;-74
2021/11/20 09:23:58;;;;;;;1.40;0.47;;;18.90;99.90;;;;;;5047639;28;20506;-73
2021/11/20 09:26:26;;;;;;;6.07;0.70;;;18.90;99.90;;;;;;5042234;28;20043;-72
2021/11/20 09:28:55;;;;;;;3.10;0.60;;;18.80;99.90;;;;;;5039821;28;20032;-73
2021/11/20 09:31:23;;;;;;;1.75;0.43;;;18.70;99.90;;;;;;5051128;28;20084;-74
2021/11/20 09:33:52;;;;;;;1.85;0.40;;;18.60;99.90;;;;;;5045065;28;20056;-71
2021/11/20 09:36:20;;;;;;;3.33;0.50;;;18.50;99.90;;;;;;5043168;28;20026;-73
2021/11/20 09:38:48;;;;;;;5.53;0.60;;;18.40;99.90;;;;;;5046191;28;20048;-73
2021/11/20 09:41:26;;;;;;;1.42;0.40;;;18.40;99.90;;;;;;5047342;28;20026;-73
2021/11/20 09:43:59;;;;;;;0.80;0.30;;;18.30;99.90;;;;;;5053438;28;20045;-73
2021/11/20 09:46:28;;;;;;;1.65;0.35;;;18.20;99.90;;;;;;5041615;28;20037;-72
2021/11/20 09:49:06;;;;;;;1.90;0.52;;;18.20;99.90;;;;;;5049737;28;20025;-71
2021/11/20 09:51:33;;;;;;;2.85;0.50;;;18.20;99.90;;;;;;5044012;28;20036;-74
2021/11/20 09:54:21;;;;;;;2.17;0.50;;;18.10;99.90;;;;;;5051844;28;20103;-71
2021/11/20 09:56:48;;;;;;;1.98;0.40;;;18.10;99.90;;;;;;5041383;28;20541;-71
2021/11/20 09:59:39;;;;;;;0.45;0.35;;;18.10;99.90;;;;;;5038903;28;20146;-72
2021/11/20 10:02:20;;;;;;;4.03;0.40;;;18.10;99.90;;;;;;5041791;28;20079;-73
2021/11/20 10:05:20;;;;;;;4.03;0.50;;;18.00;99.90;;;;;;5041372;28;20472;-72
2021/11/20 10:08:03;;;;;;;0.40;0.40;;;18.00;99.90;;;;;;5046103;28;20060;-74
2021/11/20 10:10:46;;;;;;;3.42;0.60;;;18.00;99.90;;;;;;5051258;28;20472;-73
2021/11/20 10:13:13;;;;;;;3.22;0.90;;;18.00;99.90;;;;;;5050366;28;20049;-71
2021/11/20 10:15:52;;;;;;;3.00;1.13;;;18.00;99.90;;;;;;5049080;28;20059;-72
2021/11/20 10:18:38;;;;;;;2.30;0.77;;;18.00;99.90;;;;;;5045440;28;20079;-72
2021/11/20 10:21:16;;;;;;;1.70;0.52;;;18.00;99.90;;;;;;5039876;28;20373;-73
2021/11/20 10:23:46;;;;;;;4.85;0.75;;;17.90;99.90;;;;;;5039441;28;20043;-73
2021/11/20 10:26:27;;;;;;;2.42;0.35;;;17.90;99.90;;;;;;5043187;28;20045;-71
2021/11/20 10:29:21;;;;;;;1.45;0.40;;;17.90;99.90;;;;;;5044610;28;20050;-71
2021/11/20 10:32:02;;;;;;;2.10;0.47;;;17.90;99.90;;;;;;5046247;28;20029;-74
2021/11/20 10:34:58;;;;;;;2.78;0.43;;;17.90;99.90;;;;;;5050867;28;20033;-73
2021/11/20 10:37:35;;;;;;;4.63;1.25;;;17.90;99.90;;;;;;5035787;28;20061;-73
2021/11/20 10:40:29;;;;;;;3.25;0.60;;;17.90;99.90;;;;;;5044263;28;20037;-72
2021/11/20 10:43:20;;;;;;;3.03;0.40;;;17.90;99.90;;;;;;5037107;28;20033;-74
2021/11/20 10:46:14;;;;;;;4.57;1.48;;;17.90;99.90;;;;;;5036980;28;20028;-72
2021/11/20 10:48:47;;;;;;;2.25;0.95;;;17.90;99.90;;;;;;5040534;28;20061;-76
2021/11/20 10:51:48;;;;;;;3.40;0.82;;;17.90;99.90;;;;;;5042197;28;20021;-77
2021/11/20 10:54:43;;;;;;;3.78;0.85;;;17.90;99.90;;;;;;5043190;28;20033;-74
2021/11/20 10:57:18;;;;;;;1.08;0.40;;;17.90;99.90;;;;;;5046999;28;20099;-72
2021/11/20 11:00:09;;;;;;;4.22;0.70;;;17.90;99.90;;;;;;5044253;28;20025;-75
2021/11/20 11:03:03;;;;;;;5.05;0.40;;;17.80;99.90;;;;;;5038299;28;20112;-75
2021/11/20 11:06:07;;;;;;;3.80;0.68;;;17.80;99.90;;;;;;5044130;28;20029;-75
2021/11/20 11:08:56;;;;;;;1.38;0.50;;;17.80;99.90;;;;;;5044956;28;20029;-74
2021/11/20 11:12:02;;;;;;;3.00;0.70;;;17.70;99.90;;;;;;5048075;28;20036;-73
2021/11/20 11:14:53;;;;;;;1.38;0.30;;;17.70;99.90;;;;;;5029144;28;20053;-75
2021/11/20 11:17:39;;;;;;;2.33;0.73;;;17.70;99.90;;;;;;5051099;28;20488;-73
2021/11/20 11:20:47;;;;;;;0.77;0.25;;;17.70;99.90;;;;;;5050162;28;20017;-72
2021/11/20 11:23:15;;;;;;;1.35;0.28;;;17.60;99.90;;;;;;5042455;28;20137;-73
2021/11/20 11:26:07;;;;;;;1.75;0.30;;;17.60;99.90;;;;;;5041087;28;20025;-72
2021/11/20 11:28:41;;;;;;;0.98;0.40;;;17.60;99.90;;;;;;5041319;28;20020;-73
2021/11/20 11:31:39;;;;;;;0.73;0.20;;;17.60;99.90;;;;;;5044855;28;20052;-73
2021/11/20 11:34:26;;;;;;;0.70;0.20;;;17.60;99.90;;;;;;5037832;28;20033;-73
2021/11/20 11:37:09;;;;;;;0.95;0.40;;;17.60;99.90;;;;;;5040637;28;20033;-72
2021/11/20 11:40:04;;;;;;;1.27;0.70;;;17.60;99.90;;;;;;5041880;28;20045;-73
2021/11/20 11:42:37;;;;;;;0.98;0.60;;;17.60;99.90;;;;;;5041166;28;20033;-71
2021/11/20 11:45:24;;;;;;;2.25;0.82;;;17.70;99.90;;;;;;5042806;28;20025;-72
2021/11/20 11:47:58;;;;;;;2.35;0.60;;;17.70;99.90;;;;;;5038550;28;20029;-71
2021/11/20 11:50:45;;;;;;;1.50;0.50;;;17.70;99.90;;;;;;5043791;28;20036;-72
2021/11/20 11:53:24;;;;;;;0.65;0.50;;;17.60;99.90;;;;;;5037633;28;20033;-72
2021/11/20 11:55:57;;;;;;;2.47;0.45;;;17.70;99.90;;;;;;5035870;28;20048;-71
2021/11/20 11:58:31;;;;;;;0.73;0.30;;;17.70;99.90;;;;;;5047167;28;20488;-72
2021/11/20 12:01:07;;;;;;;0.32;0.30;;;17.70;99.90;;;;;;5049199;28;20037;-72
2021/11/20 12:03:41;;;;;;;1.02;0.50;;;17.70;99.90;;;;;;5051222;28;20029;-72
2021/11/20 12:06:20;;;;;;;2.25;0.40;;;17.70;99.90;;;;;;5050755;28;20052;-73
2021/11/20 12:08:52;;;;;;;1.48;0.50;;;17.70;99.90;;;;;;5050840;28;20029;-71
2021/11/20 12:11:28;;;;;;;3.47;1.00;;;17.70;99.90;;;;;;5050328;28;20036;-70
2021/11/20 12:14:14;;;;;;;2.00;0.60;;;17.60;99.90;;;;;;5046366;28;20108;-70
2021/11/20 12:16:52;;;;;;;2.35;0.50;;;17.60;99.90;;;;;;5036682;28;20396;-72
2021/11/20 12:19:35;;;;;;;0.70;0.50;;;17.60;99.90;;;;;;5037818;28;20032;-71
2021/11/20 12:22:14;;;;;;;2.05;1.15;;;17.60;99.90;;;;;;5031997;28;20033;-70
2021/11/20 12:24:53;;;;;;;0.95;0.70;;;17.70;99.90;;;;;;5044772;28;20033;-70
2021/11/20 12:27:38;;;;;;;0.80;0.57;;;17.70;99.90;;;;;;5035769;28;20116;-71
2021/11/20 12:30:49;;;;;;;0.32;0.30;;;17.60;99.90;;;;;;5035094;28;20048;-70
2021/11/20 12:33:41;;;;;;;0.30;0.20;;;17.70;99.90;;;;;;5037631;28;20115;-72
2021/11/20 12:36:33;;;;;;;0.45;0.40;;;17.70;99.90;;;;;;5035011;28;21186;-72
2021/11/20 12:39:07;;;;;;;0.60;0.50;;;17.70;99.90;;;;;;5037491;28;20037;-71
2021/11/20 12:41:55;;;;;;;1.40;0.55;;;17.70;99.90;;;;;;5038270;28;20032;-72
2021/11/20 12:44:40;;;;;;;1.33;0.50;;;17.60;99.90;;;;;;5039578;28;20024;-71
2021/11/20 12:47:22;;;;;;;0.50;0.47;;;17.60;99.90;;;;;;5037686;28;20021;-72
2021/11/20 12:50:02;;;;;;;0.88;0.60;;;17.60;99.90;;;;;;5035354;28;20025;-72
2021/11/20 12:52:48;;;;;;;0.88;0.60;;;17.60;99.90;;;;;;5035855;28;20606;-71
2021/11/20 12:55:21;;;;;;;1.02;0.88;;;17.60;99.90;;;;;;5037647;28;20059;-72
2021/11/20 12:57:53;;;;;;;1.50;0.50;;;17.60;99.90;;;;;;5037989;28;20024;-71
2021/11/20 13:00:29;;;;;;;1.38;0.50;;;17.60;99.90;;;;;;5034241;28;20033;-72
2021/11/20 13:03:03;;;;;;;1.10;0.73;;;17.60;99.90;;;;;;5036020;28;20078;-72
2021/11/20 13:05:45;;;;;;;4.85;0.70;;;17.50;99.90;;;;;;5036605;28;20199;-70
2021/11/20 13:08:29;;;;;;;0.80;0.73;;;17.40;99.90;;;;;;5034087;28;20028;-71
2021/11/20 13:11:09;;;;;;;0.95;0.73;;;17.40;99.90;;;;;;5037738;28;20057;-70
2021/11/20 13:13:39;;;;;;;1.52;0.50;;;17.30;99.90;;;;;;5039260;28;20037;-71
2021/11/20 13:16:19;;;;;;;2.58;0.90;;;17.20;99.90;;;;;;5035937;28;20472;-70
2021/11/20 13:19:05;;;;;;;2.25;0.60;;;17.20;99.90;;;;;;5035606;28;20928;-71